sensor_id;sensor_type;location;lat;lon;timestamp;P1;durP1;ratioP1;P2;durP2;ratioP2
5117;SDS011;2578;51.622;7.046;2023-04-24T00:00:07;5.90;;;5.50;;
5117;SDS011;2578;51.622;7.046;2023-04-24T00:02:42;6.20;;;5.80;;
5117;SDS011;2578;51.622;7.046;2023-04-24T00:05:16;5.70;;;5.30;;
5117;SDS011;2578;51.622;7.046;2023-04-24T00:07:42;6.13;;;5.63;;
5117;SDS011;2578;51.622;7.046;2023-04-24T00:10:08;5.50;;;5.10;;
5117;SDS011;2578;51.622;7.046;2023-04-24T00:12:34;5.60;;;5.20;;
5117;SDS011;2578;51.622;7.046;2023-04-24T00:15:01;6.63;;;6.13;;
5117;SDS011;2578;51.622;7.046;2023-04-24T00:17:26;5.90;;;5.50;;
5117;SDS011;2578;51.622;7.046;2023-04-24T00:19:52;6.20;;;5.70;;
5117;SDS011;2578;51.622;7.046;2023-04-24T00:22:24;6.80;;;6.30;;
5117;SDS011;2578;51.622;7.046;2023-04-24T00:24:50;6.60;;;6.13;;
5117;SDS011;2578;51.622;7.046;2023-04-24T00:27:16;6.50;;;6.00;;
5117;SDS011;2578;51.622;7.046;2023-04-24T00:29:42;5.50;;;5.10;;
5117;SDS011;2578;51.622;7.046;2023-04-24T00:32:07;5.20;;;4.80;;
5117;SDS011;2578;51.622;7.046;2023-04-24T00:34:33;5.40;;;5.00;;
5117;SDS011;2578;51.622;7.046;2023-04-24T00:36:59;5.07;;;4.67;;
5117;SDS011;2578;51.622;7.046;2023-04-24T00:39:24;4.40;;;4.00;;
5117;SDS011;2578;51.622;7.046;2023-04-24T00:41:50;4.60;;;4.20;;
5117;SDS011;2578;51.622;7.046;2023-04-24T00:44:16;4.90;;;4.50;;
5117;SDS011;2578;51.622;7.046;2023-04-24T00:46:42;4.80;;;4.40;;
5117;SDS011;2578;51.622;7.046;2023-04-24T00:49:08;4.50;;;4.10;;
5117;SDS011;2578;51.622;7.046;2023-04-24T00:51:33;4.40;;;4.00;;
5117;SDS011;2578;51.622;7.046;2023-04-24T00:53:59;4.30;;;3.90;;
5117;SDS011;2578;51.622;7.046;2023-04-24T00:56:26;3.80;;;3.50;;
5117;SDS011;2578;51.622;7.046;2023-04-24T00:58:52;4.40;;;4.00;;
5117;SDS011;2578;51.622;7.046;2023-04-24T01:01:21;4.00;;;3.70;;
5117;SDS011;2578;51.622;7.046;2023-04-24T01:03:48;3.87;;;3.47;;
5117;SDS011;2578;51.622;7.046;2023-04-24T01:06:15;3.80;;;3.50;;
5117;SDS011;2578;51.622;7.046;2023-04-24T01:08:41;4.57;;;4.17;;
5117;SDS011;2578;51.622;7.046;2023-04-24T01:11:08;3.80;;;3.50;;
5117;SDS011;2578;51.622;7.046;2023-04-24T01:13:34;4.03;;;3.63;;
5117;SDS011;2578;51.622;7.046;2023-04-24T01:16:00;4.03;;;3.73;;
5117;SDS011;2578;51.622;7.046;2023-04-24T01:18:25;5.53;;;4.30;;
5117;SDS011;2578;51.622;7.046;2023-04-24T01:20:53;7.77;;;4.67;;
5117;SDS011;2578;51.622;7.046;2023-04-24T01:23:21;3.90;;;3.60;;
5117;SDS011;2578;51.622;7.046;2023-04-24T01:25:48;4.40;;;4.00;;
5117;SDS011;2578;51.622;7.046;2023-04-24T01:28:14;4.47;;;4.07;;
5117;SDS011;2578;51.622;7.046;2023-04-24T01:30:41;3.80;;;3.43;;
5117;SDS011;2578;51.622;7.046;2023-04-24T01:33:09;5.83;;;5.13;;
5117;SDS011;2578;51.622;7.046;2023-04-24T01:35:37;5.90;;;4.50;;
5117;SDS011;2578;51.622;7.046;2023-04-24T01:38:03;4.77;;;3.60;;
5117;SDS011;2578;51.622;7.046;2023-04-24T01:40:30;3.93;;;3.03;;
5117;SDS011;2578;51.622;7.046;2023-04-24T01:42:57;3.20;;;2.90;;
5117;SDS011;2578;51.622;7.046;2023-04-24T01:45:23;5.97;;;3.63;;
5117;SDS011;2578;51.622;7.046;2023-04-24T01:47:49;3.00;;;2.50;;
5117;SDS011;2578;51.622;7.046;2023-04-24T01:50:15;8.93;;;5.17;;
5117;SDS011;2578;51.622;7.046;2023-04-24T01:52:41;13.73;;;3.43;;
5117;SDS011;2578;51.622;7.046;2023-04-24T01:55:07;5.13;;;3.73;;
5117;SDS011;2578;51.622;7.046;2023-04-24T01:57:33;4.60;;;3.13;;
5117;SDS011;2578;51.622;7.046;2023-04-24T01:59:59;4.50;;;3.33;;
5117;SDS011;2578;51.622;7.046;2023-04-24T02:02:25;3.40;;;2.50;;
5117;SDS011;2578;51.622;7.046;2023-04-24T02:04:53;6.20;;;2.70;;
5117;SDS011;2578;51.622;7.046;2023-04-24T02:07:19;3.20;;;2.43;;
5117;SDS011;2578;51.622;7.046;2023-04-24T02:09:45;3.00;;;2.23;;
5117;SDS011;2578;51.622;7.046;2023-04-24T02:12:11;6.60;;;3.90;;
5117;SDS011;2578;51.622;7.046;2023-04-24T02:14:36;3.23;;;2.40;;
5117;SDS011;2578;51.622;7.046;2023-04-24T02:17:02;5.50;;;3.67;;
5117;SDS011;2578;51.622;7.046;2023-04-24T02:19:28;5.90;;;3.60;;
5117;SDS011;2578;51.622;7.046;2023-04-24T02:21:54;4.60;;;3.43;;
5117;SDS011;2578;51.622;7.046;2023-04-24T02:24:19;4.77;;;3.17;;
5117;SDS011;2578;51.622;7.046;2023-04-24T02:26:45;3.10;;;2.30;;
5117;SDS011;2578;51.622;7.046;2023-04-24T02:29:11;5.10;;;4.10;;
5117;SDS011;2578;51.622;7.046;2023-04-24T02:31:36;3.30;;;2.27;;
5117;SDS011;2578;51.622;7.046;2023-04-24T02:34:02;2.80;;;2.00;;
5117;SDS011;2578;51.622;7.046;2023-04-24T02:36:28;3.07;;;2.40;;
5117;SDS011;2578;51.622;7.046;2023-04-24T02:38:53;4.03;;;3.50;;
5117;SDS011;2578;51.622;7.046;2023-04-24T02:41:19;8.93;;;4.10;;
5117;SDS011;2578;51.622;7.046;2023-04-24T02:43:45;2.90;;;2.00;;
5117;SDS011;2578;51.622;7.046;2023-04-24T02:46:10;4.30;;;2.50;;
5117;SDS011;2578;51.622;7.046;2023-04-24T02:48:36;2.87;;;2.00;;
5117;SDS011;2578;51.622;7.046;2023-04-24T02:51:03;4.80;;;3.70;;
5117;SDS011;2578;51.622;7.046;2023-04-24T02:53:29;5.20;;;3.33;;
5117;SDS011;2578;51.622;7.046;2023-04-24T02:55:55;3.10;;;2.20;;
5117;SDS011;2578;51.622;7.046;2023-04-24T02:58:21;9.63;;;4.50;;
5117;SDS011;2578;51.622;7.046;2023-04-24T03:00:47;2.87;;;2.20;;
5117;SDS011;2578;51.622;7.046;2023-04-24T03:03:13;6.20;;;4.17;;
5117;SDS011;2578;51.622;7.046;2023-04-24T03:05:40;2.93;;;2.13;;
5117;SDS011;2578;51.622;7.046;2023-04-24T03:08:05;8.50;;;3.90;;
5117;SDS011;2578;51.622;7.046;2023-04-24T03:10:31;3.50;;;2.30;;
5117;SDS011;2578;51.622;7.046;2023-04-24T03:12:58;6.37;;;3.93;;
5117;SDS011;2578;51.622;7.046;2023-04-24T03:15:26;8.50;;;6.27;;
5117;SDS011;2578;51.622;7.046;2023-04-24T03:17:54;4.80;;;2.77;;
5117;SDS011;2578;51.622;7.046;2023-04-24T03:20:20;8.30;;;4.20;;
5117;SDS011;2578;51.622;7.046;2023-04-24T03:22:46;4.77;;;3.47;;
5117;SDS011;2578;51.622;7.046;2023-04-24T03:25:12;4.50;;;3.10;;
5117;SDS011;2578;51.622;7.046;2023-04-24T03:27:37;7.60;;;4.27;;
5117;SDS011;2578;51.622;7.046;2023-04-24T03:30:04;3.43;;;2.57;;
5117;SDS011;2578;51.622;7.046;2023-04-24T03:32:31;3.20;;;2.57;;
5117;SDS011;2578;51.622;7.046;2023-04-24T03:34:57;2.80;;;2.00;;
5117;SDS011;2578;51.622;7.046;2023-04-24T03:37:23;7.40;;;4.67;;
5117;SDS011;2578;51.622;7.046;2023-04-24T03:39:48;2.90;;;2.00;;
5117;SDS011;2578;51.622;7.046;2023-04-24T03:45:11;12.63;;;4.97;;
5117;SDS011;2578;51.622;7.046;2023-04-24T03:47:37;7.00;;;3.20;;
5117;SDS011;2578;51.622;7.046;2023-04-24T03:50:02;9.77;;;4.20;;
5117;SDS011;2578;51.622;7.046;2023-04-24T03:52:30;9.10;;;3.00;;
5117;SDS011;2578;51.622;7.046;2023-04-24T03:54:56;12.23;;;5.93;;
5117;SDS011;2578;51.622;7.046;2023-04-24T03:57:21;6.10;;;3.97;;
5117;SDS011;2578;51.622;7.046;2023-04-24T03:59:51;3.23;;;1.90;;
5117;SDS011;2578;51.622;7.046;2023-04-24T04:02:18;3.07;;;2.13;;
5117;SDS011;2578;51.622;7.046;2023-04-24T04:04:44;2.77;;;1.80;;
5117;SDS011;2578;51.622;7.046;2023-04-24T04:07:10;6.37;;;2.90;;
5117;SDS011;2578;51.622;7.046;2023-04-24T04:09:36;12.40;;;6.53;;
5117;SDS011;2578;51.622;7.046;2023-04-24T04:12:01;7.23;;;3.30;;
5117;SDS011;2578;51.622;7.046;2023-04-24T04:14:27;4.70;;;4.03;;
5117;SDS011;2578;51.622;7.046;2023-04-24T04:16:53;3.87;;;2.60;;
5117;SDS011;2578;51.622;7.046;2023-04-24T04:19:19;5.37;;;3.80;;
5117;SDS011;2578;51.622;7.046;2023-04-24T04:21:44;8.10;;;4.70;;
5117;SDS011;2578;51.622;7.046;2023-04-24T04:24:10;3.40;;;2.83;;
5117;SDS011;2578;51.622;7.046;2023-04-24T04:26:36;3.40;;;2.20;;
5117;SDS011;2578;51.622;7.046;2023-04-24T04:29:03;3.20;;;2.27;;
5117;SDS011;2578;51.622;7.046;2023-04-24T04:31:32;7.77;;;5.77;;
5117;SDS011;2578;51.622;7.046;2023-04-24T04:34:02;2.83;;;2.10;;
5117;SDS011;2578;51.622;7.046;2023-04-24T04:36:30;2.90;;;2.00;;
5117;SDS011;2578;51.622;7.046;2023-04-24T04:38:56;7.70;;;4.73;;
5117;SDS011;2578;51.622;7.046;2023-04-24T04:41:21;6.20;;;3.43;;
5117;SDS011;2578;51.622;7.046;2023-04-24T04:43:47;3.60;;;2.80;;
5117;SDS011;2578;51.622;7.046;2023-04-24T04:46:13;4.23;;;2.60;;
5117;SDS011;2578;51.622;7.046;2023-04-24T04:48:39;4.53;;;3.53;;
5117;SDS011;2578;51.622;7.046;2023-04-24T04:51:05;6.30;;;4.17;;
5117;SDS011;2578;51.622;7.046;2023-04-24T04:53:31;5.00;;;3.33;;
5117;SDS011;2578;51.622;7.046;2023-04-24T04:55:56;3.10;;;2.50;;
5117;SDS011;2578;51.622;7.046;2023-04-24T04:58:22;5.87;;;3.40;;
5117;SDS011;2578;51.622;7.046;2023-04-24T05:00:48;5.20;;;3.27;;
5117;SDS011;2578;51.622;7.046;2023-04-24T05:03:14;3.60;;;2.40;;
5117;SDS011;2578;51.622;7.046;2023-04-24T05:05:40;3.43;;;2.70;;
5117;SDS011;2578;51.622;7.046;2023-04-24T05:08:06;10.10;;;3.37;;
5117;SDS011;2578;51.622;7.046;2023-04-24T05:10:32;4.90;;;3.40;;
5117;SDS011;2578;51.622;7.046;2023-04-24T05:12:58;7.57;;;4.73;;
5117;SDS011;2578;51.622;7.046;2023-04-24T05:15:23;3.53;;;3.23;;
5117;SDS011;2578;51.622;7.046;2023-04-24T05:17:49;6.20;;;4.70;;
5117;SDS011;2578;51.622;7.046;2023-04-24T05:20:15;18.43;;;8.87;;
5117;SDS011;2578;51.622;7.046;2023-04-24T05:22:41;7.67;;;6.40;;
5117;SDS011;2578;51.622;7.046;2023-04-24T05:25:08;5.10;;;2.77;;
5117;SDS011;2578;51.622;7.046;2023-04-24T05:27:33;5.13;;;3.33;;
5117;SDS011;2578;51.622;7.046;2023-04-24T05:29:59;8.63;;;5.50;;
5117;SDS011;2578;51.622;7.046;2023-04-24T05:32:25;10.00;;;3.60;;
5117;SDS011;2578;51.622;7.046;2023-04-24T05:34:52;4.33;;;2.90;;
5117;SDS011;2578;51.622;7.046;2023-04-24T05:37:17;3.90;;;3.23;;
5117;SDS011;2578;51.622;7.046;2023-04-24T05:39:43;6.70;;;3.90;;
5117;SDS011;2578;51.622;7.046;2023-04-24T05:42:09;4.60;;;3.27;;
5117;SDS011;2578;51.622;7.046;2023-04-24T05:44:35;8.50;;;5.17;;
5117;SDS011;2578;51.622;7.046;2023-04-24T05:47:03;10.80;;;8.93;;
5117;SDS011;2578;51.622;7.046;2023-04-24T05:49:29;4.10;;;2.27;;
5117;SDS011;2578;51.622;7.046;2023-04-24T05:51:54;8.47;;;4.27;;
5117;SDS011;2578;51.622;7.046;2023-04-24T05:54:20;5.47;;;3.30;;
5117;SDS011;2578;51.622;7.046;2023-04-24T05:56:47;5.33;;;3.50;;
5117;SDS011;2578;51.622;7.046;2023-04-24T05:59:14;5.10;;;2.27;;
5117;SDS011;2578;51.622;7.046;2023-04-24T06:01:39;6.10;;;3.40;;
5117;SDS011;2578;51.622;7.046;2023-04-24T06:04:05;10.43;;;5.77;;
5117;SDS011;2578;51.622;7.046;2023-04-24T06:06:31;5.00;;;2.70;;
5117;SDS011;2578;51.622;7.046;2023-04-24T06:08:57;7.63;;;4.80;;
5117;SDS011;2578;51.622;7.046;2023-04-24T06:11:24;6.47;;;3.17;;
5117;SDS011;2578;51.622;7.046;2023-04-24T06:13:49;5.13;;;3.00;;
5117;SDS011;2578;51.622;7.046;2023-04-24T06:16:15;2.80;;;1.80;;
5117;SDS011;2578;51.622;7.046;2023-04-24T06:18:41;19.13;;;8.07;;
5117;SDS011;2578;51.622;7.046;2023-04-24T06:21:07;8.10;;;3.00;;
5117;SDS011;2578;51.622;7.046;2023-04-24T06:23:33;2.70;;;1.57;;
5117;SDS011;2578;51.622;7.046;2023-04-24T06:25:59;7.13;;;3.80;;
5117;SDS011;2578;51.622;7.046;2023-04-24T06:28:24;7.17;;;4.67;;
5117;SDS011;2578;51.622;7.046;2023-04-24T06:30:50;9.70;;;5.30;;
5117;SDS011;2578;51.622;7.046;2023-04-24T06:33:16;5.70;;;4.30;;
5117;SDS011;2578;51.622;7.046;2023-04-24T06:35:42;5.33;;;3.30;;
5117;SDS011;2578;51.622;7.046;2023-04-24T06:38:07;4.37;;;2.80;;
5117;SDS011;2578;51.622;7.046;2023-04-24T06:40:33;5.20;;;2.97;;
5117;SDS011;2578;51.622;7.046;2023-04-24T06:42:59;4.70;;;3.10;;
5117;SDS011;2578;51.622;7.046;2023-04-24T06:45:27;3.97;;;2.30;;
5117;SDS011;2578;51.622;7.046;2023-04-24T06:47:54;3.00;;;2.10;;
5117;SDS011;2578;51.622;7.046;2023-04-24T06:50:20;3.07;;;2.00;;
5117;SDS011;2578;51.622;7.046;2023-04-24T06:52:46;3.30;;;2.20;;
5117;SDS011;2578;51.622;7.046;2023-04-24T06:55:12;5.43;;;3.40;;
5117;SDS011;2578;51.622;7.046;2023-04-24T06:57:37;2.90;;;1.83;;
5117;SDS011;2578;51.622;7.046;2023-04-24T07:00:04;3.30;;;2.00;;
5117;SDS011;2578;51.622;7.046;2023-04-24T07:02:32;3.63;;;1.90;;
5117;SDS011;2578;51.622;7.046;2023-04-24T07:04:57;7.00;;;2.60;;
5117;SDS011;2578;51.622;7.046;2023-04-24T07:07:23;5.43;;;2.77;;
5117;SDS011;2578;51.622;7.046;2023-04-24T07:09:49;3.10;;;2.03;;
5117;SDS011;2578;51.622;7.046;2023-04-24T07:12:15;5.50;;;3.00;;
5117;SDS011;2578;51.622;7.046;2023-04-24T07:14:42;2.80;;;1.80;;
5117;SDS011;2578;51.622;7.046;2023-04-24T07:17:07;4.97;;;3.30;;
5117;SDS011;2578;51.622;7.046;2023-04-24T07:19:33;5.80;;;3.53;;
5117;SDS011;2578;51.622;7.046;2023-04-24T07:22:01;4.90;;;2.97;;
5117;SDS011;2578;51.622;7.046;2023-04-24T07:24:50;3.77;;;2.53;;
5117;SDS011;2578;51.622;7.046;2023-04-24T07:27:18;7.70;;;4.53;;
5117;SDS011;2578;51.622;7.046;2023-04-24T07:29:46;13.13;;;5.33;;
5117;SDS011;2578;51.622;7.046;2023-04-24T07:32:12;5.93;;;2.77;;
5117;SDS011;2578;51.622;7.046;2023-04-24T07:34:37;3.00;;;2.13;;
5117;SDS011;2578;51.622;7.046;2023-04-24T07:37:06;2.90;;;2.10;;
5117;SDS011;2578;51.622;7.046;2023-04-24T07:39:37;3.10;;;2.50;;
5117;SDS011;2578;51.622;7.046;2023-04-24T07:42:04;7.00;;;5.53;;
5117;SDS011;2578;51.622;7.046;2023-04-24T07:44:30;3.10;;;2.60;;
5117;SDS011;2578;51.622;7.046;2023-04-24T07:46:57;3.10;;;2.70;;
5117;SDS011;2578;51.622;7.046;2023-04-24T07:49:25;4.30;;;3.87;;
5117;SDS011;2578;51.622;7.046;2023-04-24T07:51:52;3.80;;;3.00;;
5117;SDS011;2578;51.622;7.046;2023-04-24T07:54:18;4.37;;;3.50;;
5117;SDS011;2578;51.622;7.046;2023-04-24T07:56:44;12.70;;;3.70;;
5117;SDS011;2578;51.622;7.046;2023-04-24T07:59:10;6.83;;;5.00;;
5117;SDS011;2578;51.622;7.046;2023-04-24T08:01:36;3.87;;;3.17;;
5117;SDS011;2578;51.622;7.046;2023-04-24T08:04:02;3.73;;;3.30;;
5117;SDS011;2578;51.622;7.046;2023-04-24T08:06:28;4.20;;;3.80;;
5117;SDS011;2578;51.622;7.046;2023-04-24T08:08:55;4.30;;;3.90;;
5117;SDS011;2578;51.622;7.046;2023-04-24T08:11:22;3.60;;;3.30;;
5117;SDS011;2578;51.622;7.046;2023-04-24T08:13:47;4.90;;;4.40;;
5117;SDS011;2578;51.622;7.046;2023-04-24T08:16:13;4.90;;;4.50;;
5117;SDS011;2578;51.622;7.046;2023-04-24T08:18:39;4.90;;;4.50;;
5117;SDS011;2578;51.622;7.046;2023-04-24T08:21:05;6.90;;;6.40;;
5117;SDS011;2578;51.622;7.046;2023-04-24T08:23:31;5.00;;;4.60;;
5117;SDS011;2578;51.622;7.046;2023-04-24T08:25:56;4.60;;;4.20;;
5117;SDS011;2578;51.622;7.046;2023-04-24T08:28:22;6.70;;;6.03;;
5117;SDS011;2578;51.622;7.046;2023-04-24T08:30:48;7.13;;;6.63;;
5117;SDS011;2578;51.622;7.046;2023-04-24T08:33:19;6.50;;;6.00;;
5117;SDS011;2578;51.622;7.046;2023-04-24T08:35:47;6.20;;;5.80;;
5117;SDS011;2578;51.622;7.046;2023-04-24T08:38:12;7.93;;;7.40;;
5117;SDS011;2578;51.622;7.046;2023-04-24T08:40:38;7.23;;;6.73;;
5117;SDS011;2578;51.622;7.046;2023-04-24T08:43:04;8.43;;;7.83;;
5117;SDS011;2578;51.622;7.046;2023-04-24T08:45:30;8.87;;;8.27;;
5117;SDS011;2578;51.622;7.046;2023-04-24T08:47:58;8.00;;;7.40;;
5117;SDS011;2578;51.622;7.046;2023-04-24T08:50:24;7.40;;;6.90;;
5117;SDS011;2578;51.622;7.046;2023-04-24T08:52:51;8.27;;;7.77;;
5117;SDS011;2578;51.622;7.046;2023-04-24T08:55:22;8.00;;;7.40;;
5117;SDS011;2578;51.622;7.046;2023-04-24T08:57:50;5.90;;;5.47;;
5117;SDS011;2578;51.622;7.046;2023-04-24T09:00:18;5.63;;;5.23;;
5117;SDS011;2578;51.622;7.046;2023-04-24T09:02:45;6.83;;;6.33;;
5117;SDS011;2578;51.622;7.046;2023-04-24T09:05:13;8.40;;;7.60;;
5117;SDS011;2578;51.622;7.046;2023-04-24T09:07:41;7.60;;;7.10;;
5117;SDS011;2578;51.622;7.046;2023-04-24T09:10:11;10.50;;;9.80;;
5117;SDS011;2578;51.622;7.046;2023-04-24T09:12:37;9.43;;;8.83;;
5117;SDS011;2578;51.622;7.046;2023-04-24T09:15:03;9.70;;;9.10;;
5117;SDS011;2578;51.622;7.046;2023-04-24T09:17:32;9.37;;;8.77;;
5117;SDS011;2578;51.622;7.046;2023-04-24T09:19:59;10.40;;;9.80;;
5117;SDS011;2578;51.622;7.046;2023-04-24T09:22:24;11.13;;;10.43;;
5117;SDS011;2578;51.622;7.046;2023-04-24T09:25:03;13.40;;;12.50;;
5117;SDS011;2578;51.622;7.046;2023-04-24T09:27:34;12.73;;;11.93;;
5117;SDS011;2578;51.622;7.046;2023-04-24T09:30:00;12.67;;;11.87;;
5117;SDS011;2578;51.622;7.046;2023-04-24T09:32:26;12.30;;;11.60;;
5117;SDS011;2578;51.622;7.046;2023-04-24T09:35:06;12.27;;;11.47;;
5117;SDS011;2578;51.622;7.046;2023-04-24T09:37:37;13.40;;;12.47;;
5117;SDS011;2578;51.622;7.046;2023-04-24T09:40:08;13.50;;;12.70;;
5117;SDS011;2578;51.622;7.046;2023-04-24T09:42:38;14.53;;;13.53;;
5117;SDS011;2578;51.622;7.046;2023-04-24T09:45:13;14.20;;;13.30;;
5117;SDS011;2578;51.622;7.046;2023-04-24T09:47:39;14.30;;;13.40;;
5117;SDS011;2578;51.622;7.046;2023-04-24T09:50:09;14.87;;;13.97;;
5117;SDS011;2578;51.622;7.046;2023-04-24T09:52:46;15.50;;;14.50;;
5117;SDS011;2578;51.622;7.046;2023-04-24T09:55:21;16.70;;;15.30;;
5117;SDS011;2578;51.622;7.046;2023-04-24T09:57:50;17.43;;;16.03;;
5117;SDS011;2578;51.622;7.046;2023-04-24T10:00:27;17.50;;;16.20;;
5117;SDS011;2578;51.622;7.046;2023-04-24T10:03:00;18.83;;;16.87;;
5117;SDS011;2578;51.622;7.046;2023-04-24T10:05:31;16.50;;;15.40;;
5117;SDS011;2578;51.622;7.046;2023-04-24T10:08:05;18.63;;;17.13;;
5117;SDS011;2578;51.622;7.046;2023-04-24T10:10:33;16.47;;;15.20;;
5117;SDS011;2578;51.622;7.046;2023-04-24T10:13:00;19.50;;;17.50;;
5117;SDS011;2578;51.622;7.046;2023-04-24T10:15:26;20.00;;;18.07;;
5117;SDS011;2578;51.622;7.046;2023-04-24T10:17:53;16.07;;;14.83;;
5117;SDS011;2578;51.622;7.046;2023-04-24T10:20:22;21.13;;;18.93;;
5117;SDS011;2578;51.622;7.046;2023-04-24T10:22:50;19.70;;;17.80;;
5117;SDS011;2578;51.622;7.046;2023-04-24T10:25:21;17.50;;;16.00;;
5117;SDS011;2578;51.622;7.046;2023-04-24T10:27:49;24.33;;;16.43;;
5117;SDS011;2578;51.622;7.046;2023-04-24T10:30:16;18.93;;;17.10;;
5117;SDS011;2578;51.622;7.046;2023-04-24T10:32:43;17.93;;;16.47;;
5117;SDS011;2578;51.622;7.046;2023-04-24T10:35:09;18.40;;;16.77;;
5117;SDS011;2578;51.622;7.046;2023-04-24T10:37:37;19.00;;;17.40;;
5117;SDS011;2578;51.622;7.046;2023-04-24T10:40:30;14.83;;;13.83;;
5117;SDS011;2578;51.622;7.046;2023-04-24T10:43:07;17.37;;;14.90;;
5117;SDS011;2578;51.622;7.046;2023-04-24T10:45:36;19.47;;;17.80;;
5117;SDS011;2578;51.622;7.046;2023-04-24T10:48:03;22.17;;;19.87;;
5117;SDS011;2578;51.622;7.046;2023-04-24T10:50:44;17.37;;;16.07;;
5117;SDS011;2578;51.622;7.046;2023-04-24T10:53:17;19.80;;;17.80;;
5117;SDS011;2578;51.622;7.046;2023-04-24T10:58:15;17.57;;;16.20;;
5117;SDS011;2578;51.622;7.046;2023-04-24T11:00:42;24.00;;;18.63;;
5117;SDS011;2578;51.622;7.046;2023-04-24T11:03:22;18.63;;;16.93;;
5117;SDS011;2578;51.622;7.046;2023-04-24T11:08:44;20.87;;;18.70;;
5117;SDS011;2578;51.622;7.046;2023-04-24T11:19:25;24.93;;;18.10;;
5117;SDS011;2578;51.622;7.046;2023-04-24T11:22:00;23.03;;;20.93;;
5117;SDS011;2578;51.622;7.046;2023-04-24T11:24:29;20.17;;;18.20;;
5117;SDS011;2578;51.622;7.046;2023-04-24T11:32:18;21.10;;;19.43;;
5117;SDS011;2578;51.622;7.046;2023-04-24T11:34:48;20.60;;;18.93;;
5117;SDS011;2578;51.622;7.046;2023-04-24T11:37:15;21.47;;;19.73;;
5117;SDS011;2578;51.622;7.046;2023-04-24T11:39:41;18.67;;;16.87;;
5117;SDS011;2578;51.622;7.046;2023-04-24T11:42:08;15.40;;;14.00;;
5117;SDS011;2578;51.622;7.046;2023-04-24T11:44:34;10.20;;;9.20;;
5117;SDS011;2578;51.622;7.046;2023-04-24T11:47:05;11.50;;;10.60;;
5117;SDS011;2578;51.622;7.046;2023-04-24T11:49:32;11.37;;;10.53;;
5117;SDS011;2578;51.622;7.046;2023-04-24T11:51:57;12.57;;;11.57;;
5117;SDS011;2578;51.622;7.046;2023-04-24T11:54:25;13.33;;;12.07;;
5117;SDS011;2578;51.622;7.046;2023-04-24T11:56:51;11.20;;;10.50;;
5117;SDS011;2578;51.622;7.046;2023-04-24T11:59:17;10.70;;;10.10;;
5117;SDS011;2578;51.622;7.046;2023-04-24T12:01:46;11.10;;;10.20;;
5117;SDS011;2578;51.622;7.046;2023-04-24T12:04:12;11.40;;;10.50;;
5117;SDS011;2578;51.622;7.046;2023-04-24T12:06:39;11.27;;;10.27;;
5117;SDS011;2578;51.622;7.046;2023-04-24T12:09:05;10.97;;;10.27;;
5117;SDS011;2578;51.622;7.046;2023-04-24T12:11:31;11.60;;;10.77;;
5117;SDS011;2578;51.622;7.046;2023-04-24T12:13:57;15.83;;;14.33;;
5117;SDS011;2578;51.622;7.046;2023-04-24T12:16:35;13.90;;;12.70;;
5117;SDS011;2578;51.622;7.046;2023-04-24T12:19:01;12.00;;;11.10;;
5117;SDS011;2578;51.622;7.046;2023-04-24T12:21:27;11.93;;;11.00;;
5117;SDS011;2578;51.622;7.046;2023-04-24T12:23:55;11.43;;;10.63;;
5117;SDS011;2578;51.622;7.046;2023-04-24T12:26:21;9.60;;;9.00;;
5117;SDS011;2578;51.622;7.046;2023-04-24T12:28:48;15.07;;;11.70;;
5117;SDS011;2578;51.622;7.046;2023-04-24T12:31:17;10.80;;;9.87;;
5117;SDS011;2578;51.622;7.046;2023-04-24T12:33:45;11.67;;;10.43;;
5117;SDS011;2578;51.622;7.046;2023-04-24T12:36:11;9.67;;;9.07;;
5117;SDS011;2578;51.622;7.046;2023-04-24T12:38:37;11.43;;;10.43;;
5117;SDS011;2578;51.622;7.046;2023-04-24T12:41:11;11.30;;;10.50;;
5117;SDS011;2578;51.622;7.046;2023-04-24T12:43:38;11.10;;;10.17;;
5117;SDS011;2578;51.622;7.046;2023-04-24T12:46:15;8.57;;;7.97;;
5117;SDS011;2578;51.622;7.046;2023-04-24T12:48:41;10.30;;;9.53;;
5117;SDS011;2578;51.622;7.046;2023-04-24T12:51:06;9.20;;;8.60;;
5117;SDS011;2578;51.622;7.046;2023-04-24T12:53:32;11.70;;;10.90;;
5117;SDS011;2578;51.622;7.046;2023-04-24T12:55:58;13.23;;;11.80;;
5117;SDS011;2578;51.622;7.046;2023-04-24T12:58:23;12.80;;;11.70;;
5117;SDS011;2578;51.622;7.046;2023-04-24T13:00:49;11.03;;;10.33;;
5117;SDS011;2578;51.622;7.046;2023-04-24T13:03:16;10.37;;;9.67;;
5117;SDS011;2578;51.622;7.046;2023-04-24T13:05:43;12.37;;;11.40;;
5117;SDS011;2578;51.622;7.046;2023-04-24T13:08:09;11.33;;;10.53;;
5117;SDS011;2578;51.622;7.046;2023-04-24T13:10:34;10.00;;;9.30;;
5117;SDS011;2578;51.622;7.046;2023-04-24T13:13:00;9.90;;;9.20;;
5117;SDS011;2578;51.622;7.046;2023-04-24T13:15:30;8.33;;;7.83;;
5117;SDS011;2578;51.622;7.046;2023-04-24T13:17:57;8.67;;;8.03;;
5117;SDS011;2578;51.622;7.046;2023-04-24T13:20:23;8.60;;;8.07;;
5117;SDS011;2578;51.622;7.046;2023-04-24T13:22:49;9.07;;;8.47;;
5117;SDS011;2578;51.622;7.046;2023-04-24T13:25:15;8.80;;;8.20;;
5117;SDS011;2578;51.622;7.046;2023-04-24T13:27:44;8.03;;;7.43;;
5117;SDS011;2578;51.622;7.046;2023-04-24T13:30:27;9.67;;;9.03;;
5117;SDS011;2578;51.622;7.046;2023-04-24T13:32:59;9.03;;;8.43;;
5117;SDS011;2578;51.622;7.046;2023-04-24T13:35:29;9.10;;;8.50;;
5117;SDS011;2578;51.622;7.046;2023-04-24T13:37:58;9.00;;;8.40;;
5117;SDS011;2578;51.622;7.046;2023-04-24T13:40:26;8.97;;;8.40;;
5117;SDS011;2578;51.622;7.046;2023-04-24T13:42:57;12.47;;;11.57;;
5117;SDS011;2578;51.622;7.046;2023-04-24T13:45:28;11.47;;;10.67;;
5117;SDS011;2578;51.622;7.046;2023-04-24T13:47:55;11.63;;;10.83;;
5117;SDS011;2578;51.622;7.046;2023-04-24T13:50:22;11.83;;;10.90;;
5117;SDS011;2578;51.622;7.046;2023-04-24T13:52:49;13.10;;;12.20;;
5117;SDS011;2578;51.622;7.046;2023-04-24T13:55:14;13.40;;;12.40;;
5117;SDS011;2578;51.622;7.046;2023-04-24T13:57:40;13.73;;;12.60;;
5117;SDS011;2578;51.622;7.046;2023-04-24T14:00:06;11.47;;;10.77;;
5117;SDS011;2578;51.622;7.046;2023-04-24T14:02:35;10.93;;;10.07;;
5117;SDS011;2578;51.622;7.046;2023-04-24T14:05:01;12.70;;;11.80;;
5117;SDS011;2578;51.622;7.046;2023-04-24T14:07:28;11.77;;;11.07;;
5117;SDS011;2578;51.622;7.046;2023-04-24T14:09:53;11.73;;;10.93;;
5117;SDS011;2578;51.622;7.046;2023-04-24T14:12:19;10.63;;;9.93;;
5117;SDS011;2578;51.622;7.046;2023-04-24T14:14:46;12.47;;;11.67;;
5117;SDS011;2578;51.622;7.046;2023-04-24T14:17:13;12.53;;;11.33;;
5117;SDS011;2578;51.622;7.046;2023-04-24T14:19:39;11.70;;;10.87;;
5117;SDS011;2578;51.622;7.046;2023-04-24T14:22:05;9.40;;;8.80;;
5117;SDS011;2578;51.622;7.046;2023-04-24T14:24:30;11.73;;;10.73;;
5117;SDS011;2578;51.622;7.046;2023-04-24T14:26:56;11.37;;;10.37;;
5117;SDS011;2578;51.622;7.046;2023-04-24T14:29:22;9.83;;;9.03;;
5117;SDS011;2578;51.622;7.046;2023-04-24T14:31:49;12.00;;;9.50;;
5117;SDS011;2578;51.622;7.046;2023-04-24T14:34:14;12.83;;;11.53;;
5117;SDS011;2578;51.622;7.046;2023-04-24T14:36:40;10.10;;;9.40;;
5117;SDS011;2578;51.622;7.046;2023-04-24T14:39:07;12.13;;;11.33;;
5117;SDS011;2578;51.622;7.046;2023-04-24T14:41:33;11.70;;;11.00;;
5117;SDS011;2578;51.622;7.046;2023-04-24T14:44:02;10.70;;;10.10;;
5117;SDS011;2578;51.622;7.046;2023-04-24T14:46:29;11.83;;;11.13;;
5117;SDS011;2578;51.622;7.046;2023-04-24T14:48:55;14.47;;;13.27;;
5117;SDS011;2578;51.622;7.046;2023-04-24T14:51:24;9.30;;;8.80;;
5117;SDS011;2578;51.622;7.046;2023-04-24T14:53:50;8.77;;;8.17;;
5117;SDS011;2578;51.622;7.046;2023-04-24T14:56:16;9.67;;;9.00;;
5117;SDS011;2578;51.622;7.046;2023-04-24T14:58:42;10.00;;;9.40;;
5117;SDS011;2578;51.622;7.046;2023-04-24T15:01:08;9.43;;;8.80;;
5117;SDS011;2578;51.622;7.046;2023-04-24T15:03:34;8.00;;;7.40;;
5117;SDS011;2578;51.622;7.046;2023-04-24T15:06:00;8.07;;;7.57;;
5117;SDS011;2578;51.622;7.046;2023-04-24T15:08:26;8.57;;;7.97;;
5117;SDS011;2578;51.622;7.046;2023-04-24T15:10:51;8.77;;;8.17;;
5117;SDS011;2578;51.622;7.046;2023-04-24T15:13:17;8.70;;;8.20;;
5117;SDS011;2578;51.622;7.046;2023-04-24T15:15:46;14.30;;;12.50;;
5117;SDS011;2578;51.622;7.046;2023-04-24T15:18:12;9.47;;;8.83;;
5117;SDS011;2578;51.622;7.046;2023-04-24T15:20:37;11.80;;;11.00;;
5117;SDS011;2578;51.622;7.046;2023-04-24T15:23:09;10.80;;;10.10;;
5117;SDS011;2578;51.622;7.046;2023-04-24T15:25:35;10.70;;;10.00;;
5117;SDS011;2578;51.622;7.046;2023-04-24T15:28:03;11.23;;;10.53;;